Lena, IL

4:59 AM CDT on April 28, 2017 (GMT -0500)
South of Lena | | Change Station
Active Advisory: Frost Advisory

Elev 919 ft 42.34 °N, 89.81 °W | Updated 5 minutes ago

Partly Cloudy
Partly Cloudy
34.4 °F
Feels Like 34 °F
N
0.0
Wind Variable Wind from WNW
Gusts 4.0 mph

Today
High -- | Low -- °F
--% Chance of Precip.
Yesterday
High -- | Low -- °F
Precip. -- in
Pressure 29.88 in
Visibility 10.0 miles
Clouds Clear
Windchill 34 °F
Dew Point 32 °F
Humidity 91%
Rainfall 0.00 in
Snow Depth Not available.
5:58 AM 7:55 PM
Waxing Crescent, 5% visible
METAR KFEP 280955Z AUTO 30005KT 10SM CLR 01/M01 A2988 RMK AO2 T00091007
Pressure 29.88 in
Visibility 10.0 miles
Clouds Clear
Windchill 34 °F
Dew Point 32 °F
Humidity 91%
Rainfall 0.00 in
Snow Depth Not available.
5:58 AM 7:55 PM
Waxing Crescent, 5% visible
METAR KFEP 280955Z AUTO 30005KT 10SM CLR 01/M01 A2988 RMK AO2 T00091007

Get Your Daily Forecast Email!

Thanks for signing up!

Be on the lookout for a verification email in your inbox.

You'll start receiving severe weather alerts in your inbox..

×

10-Day Weather Forecast

Almanac

Astronomy

Apr. 28, 2017 Rise Set
Actual Time
Civil Twilight
Nautical Twilight
Astronomical Twilight
Moon
Length of Visible Light
Length of Day
Tomorrow will be .
, % of the Moon is Illuminated

Today's Extremes

State Highs State Lows

Community

WunderPhotos

WunderBlog® & News

Nearby

Air Quality

  Air Quality AQ Index Pollutant
Not available.

Snow Depth

Station Depth Elevation

Earthquake Activity

City Distance Mag. Time & Date
Minimum magnitude displayed is 2.5.

Coastal Water Temperatures

Place Temperature

Stations

Nearby Weather Stations

Station Location Temp. Windchill Dew Point Humidity Wind Precip. Elev Updated Type
                   

Watches & Warnings

Frost Advisory
Issued: 3:47 AM CDT Apr. 28, 2017 – National Weather Service

... Frost advisory remains in effect until 8 am CDT this morning...

* temperatures... in the low to mid 30s.

* Timing... now through 8 am CDT this morning.

* Impacts... the frost could damage plants across the advisory
area. Be sure to move vulnerable plants inside or cover them
overnight.

Precautionary/preparedness actions...

A frost advisory means that frost is likely. Cover or move
sensitive plants indoors.



12